sensor_id;sensor_type;location;lat;lon;timestamp;temperature;humidity
72905;DHT22;61048;52.162;4.516;2023-11-21T00:00:00;16.50;66.20
72905;DHT22;61048;52.162;4.516;2023-11-21T00:02:27;16.50;66.20
72905;DHT22;61048;52.162;4.516;2023-11-21T00:04:56;16.50;66.20
72905;DHT22;61048;52.162;4.516;2023-11-21T00:07:22;16.50;66.20
72905;DHT22;61048;52.162;4.516;2023-11-21T00:09:49;16.50;66.20
72905;DHT22;61048;52.162;4.516;2023-11-21T00:12:16;16.50;66.20
72905;DHT22;61048;52.162;4.516;2023-11-21T00:14:43;16.50;66.30
72905;DHT22;61048;52.162;4.516;2023-11-21T00:17:10;16.50;66.20
72905;DHT22;61048;52.162;4.516;2023-11-21T00:19:37;16.50;66.30
72905;DHT22;61048;52.162;4.516;2023-11-21T00:22:05;16.50;66.30
72905;DHT22;61048;52.162;4.516;2023-11-21T00:24:32;16.50;66.30
72905;DHT22;61048;52.162;4.516;2023-11-21T00:26:59;16.50;66.40
72905;DHT22;61048;52.162;4.516;2023-11-21T00:29:26;16.50;66.30
72905;DHT22;61048;52.162;4.516;2023-11-21T00:31:53;16.50;66.40
72905;DHT22;61048;52.162;4.516;2023-11-21T00:34:20;16.50;66.50
72905;DHT22;61048;52.162;4.516;2023-11-21T00:36:47;16.50;66.40
72905;DHT22;61048;52.162;4.516;2023-11-21T00:39:15;16.50;66.40
72905;DHT22;61048;52.162;4.516;2023-11-21T00:41:42;16.50;66.50
72905;DHT22;61048;52.162;4.516;2023-11-21T00:44:10;16.50;66.40
72905;DHT22;61048;52.162;4.516;2023-11-21T00:46:37;16.50;66.50
72905;DHT22;61048;52.162;4.516;2023-11-21T00:49:04;16.50;66.50
72905;DHT22;61048;52.162;4.516;2023-11-21T00:51:31;16.50;66.50
72905;DHT22;61048;52.162;4.516;2023-11-21T00:53:58;16.60;66.40
72905;DHT22;61048;52.162;4.516;2023-11-21T00:56:26;16.60;66.40
72905;DHT22;61048;52.162;4.516;2023-11-21T00:58:53;16.50;66.50
72905;DHT22;61048;52.162;4.516;2023-11-21T01:01:21;16.50;66.40
72905;DHT22;61048;52.162;4.516;2023-11-21T01:03:48;16.50;66.40
72905;DHT22;61048;52.162;4.516;2023-11-21T01:06:15;16.50;66.40
72905;DHT22;61048;52.162;4.516;2023-11-21T01:08:43;16.60;66.50
72905;DHT22;61048;52.162;4.516;2023-11-21T01:11:10;16.60;66.50
72905;DHT22;61048;52.162;4.516;2023-11-21T01:13:39;16.60;66.50
72905;DHT22;61048;52.162;4.516;2023-11-21T01:16:07;16.60;66.50
72905;DHT22;61048;52.162;4.516;2023-11-21T01:18:35;16.60;66.60
72905;DHT22;61048;52.162;4.516;2023-11-21T01:21:03;16.60;66.60
72905;DHT22;61048;52.162;4.516;2023-11-21T01:23:30;16.60;66.70
72905;DHT22;61048;52.162;4.516;2023-11-21T01:25:57;16.60;66.70
72905;DHT22;61048;52.162;4.516;2023-11-21T01:28:24;16.60;66.70
72905;DHT22;61048;52.162;4.516;2023-11-21T01:30:53;16.60;66.70
72905;DHT22;61048;52.162;4.516;2023-11-21T01:33:22;16.60;66.60
72905;DHT22;61048;52.162;4.516;2023-11-21T01:35:50;16.60;66.60
72905;DHT22;61048;52.162;4.516;2023-11-21T01:38:20;16.60;66.60
72905;DHT22;61048;52.162;4.516;2023-11-21T01:40:47;16.60;66.70
72905;DHT22;61048;52.162;4.516;2023-11-21T01:43:14;16.60;66.70
72905;DHT22;61048;52.162;4.516;2023-11-21T01:45:42;16.60;66.80
72905;DHT22;61048;52.162;4.516;2023-11-21T01:48:13;16.60;66.80
72905;DHT22;61048;52.162;4.516;2023-11-21T01:50:42;16.60;66.90
72905;DHT22;61048;52.162;4.516;2023-11-21T01:53:11;16.60;66.90
72905;DHT22;61048;52.162;4.516;2023-11-21T01:55:40;16.60;66.90
72905;DHT22;61048;52.162;4.516;2023-11-21T01:58:08;16.60;67.00
72905;DHT22;61048;52.162;4.516;2023-11-21T02:00:35;16.60;67.00
72905;DHT22;61048;52.162;4.516;2023-11-21T02:03:04;16.60;67.00
72905;DHT22;61048;52.162;4.516;2023-11-21T02:05:34;16.60;67.00
72905;DHT22;61048;52.162;4.516;2023-11-21T02:08:01;16.60;67.10
72905;DHT22;61048;52.162;4.516;2023-11-21T02:10:30;16.60;67.10
72905;DHT22;61048;52.162;4.516;2023-11-21T02:12:57;16.70;67.10
72905;DHT22;61048;52.162;4.516;2023-11-21T02:15:26;16.60;67.00
72905;DHT22;61048;52.162;4.516;2023-11-21T02:17:54;16.70;67.10
72905;DHT22;61048;52.162;4.516;2023-11-21T02:20:24;16.70;67.10
72905;DHT22;61048;52.162;4.516;2023-11-21T02:22:54;16.70;67.10
72905;DHT22;61048;52.162;4.516;2023-11-21T02:25:23;16.70;67.20
72905;DHT22;61048;52.162;4.516;2023-11-21T02:27:50;16.70;67.20
72905;DHT22;61048;52.162;4.516;2023-11-21T02:30:17;16.70;67.30
72905;DHT22;61048;52.162;4.516;2023-11-21T02:32:44;16.70;67.30
72905;DHT22;61048;52.162;4.516;2023-11-21T02:35:11;16.70;67.30
72905;DHT22;61048;52.162;4.516;2023-11-21T02:37:38;16.70;67.30
72905;DHT22;61048;52.162;4.516;2023-11-21T02:40:09;16.70;67.40
72905;DHT22;61048;52.162;4.516;2023-11-21T02:42:38;16.70;67.30
72905;DHT22;61048;52.162;4.516;2023-11-21T02:45:06;16.70;67.40
72905;DHT22;61048;52.162;4.516;2023-11-21T02:47:33;16.70;67.50
72905;DHT22;61048;52.162;4.516;2023-11-21T02:50:00;16.70;67.50
72905;DHT22;61048;52.162;4.516;2023-11-21T02:52:27;16.70;67.60
72905;DHT22;61048;52.162;4.516;2023-11-21T02:54:54;16.70;67.70
72905;DHT22;61048;52.162;4.516;2023-11-21T02:57:22;16.70;67.70
72905;DHT22;61048;52.162;4.516;2023-11-21T02:59:49;16.70;67.80
72905;DHT22;61048;52.162;4.516;2023-11-21T03:02:16;16.70;67.80
72905;DHT22;61048;52.162;4.516;2023-11-21T03:04:43;16.70;67.80
72905;DHT22;61048;52.162;4.516;2023-11-21T03:07:10;16.80;67.80
72905;DHT22;61048;52.162;4.516;2023-11-21T03:09:37;16.70;67.80
72905;DHT22;61048;52.162;4.516;2023-11-21T03:12:05;16.70;67.90
72905;DHT22;61048;52.162;4.516;2023-11-21T03:14:33;16.80;67.90
72905;DHT22;61048;52.162;4.516;2023-11-21T03:17:00;16.70;67.90
72905;DHT22;61048;52.162;4.516;2023-11-21T03:19:27;16.70;67.90
72905;DHT22;61048;52.162;4.516;2023-11-21T03:21:54;16.80;67.90
72905;DHT22;61048;52.162;4.516;2023-11-21T03:24:21;16.70;68.00
72905;DHT22;61048;52.162;4.516;2023-11-21T03:26:48;16.80;68.00
72905;DHT22;61048;52.162;4.516;2023-11-21T03:29:15;16.80;68.00
72905;DHT22;61048;52.162;4.516;2023-11-21T03:31:44;16.80;67.90
72905;DHT22;61048;52.162;4.516;2023-11-21T03:34:15;16.80;68.00
72905;DHT22;61048;52.162;4.516;2023-11-21T03:36:43;16.80;68.10
72905;DHT22;61048;52.162;4.516;2023-11-21T03:39:11;16.80;68.10
72905;DHT22;61048;52.162;4.516;2023-11-21T03:41:38;16.80;68.20
72905;DHT22;61048;52.162;4.516;2023-11-21T03:44:05;16.80;68.30
72905;DHT22;61048;52.162;4.516;2023-11-21T03:46:32;16.80;68.40
72905;DHT22;61048;52.162;4.516;2023-11-21T03:49:00;16.80;68.40
72905;DHT22;61048;52.162;4.516;2023-11-21T03:51:27;16.80;68.50
72905;DHT22;61048;52.162;4.516;2023-11-21T03:53:54;16.80;68.40
72905;DHT22;61048;52.162;4.516;2023-11-21T03:56:21;16.80;68.50
72905;DHT22;61048;52.162;4.516;2023-11-21T03:58:48;16.80;68.40
72905;DHT22;61048;52.162;4.516;2023-11-21T04:01:20;16.80;68.40
72905;DHT22;61048;52.162;4.516;2023-11-21T04:03:48;16.80;68.40
72905;DHT22;61048;52.162;4.516;2023-11-21T04:06:17;16.80;68.40
72905;DHT22;61048;52.162;4.516;2023-11-21T04:08:44;16.90;68.40
72905;DHT22;61048;52.162;4.516;2023-11-21T04:11:11;16.90;68.30
72905;DHT22;61048;52.162;4.516;2023-11-21T04:13:38;16.80;68.30
72905;DHT22;61048;52.162;4.516;2023-11-21T04:16:06;16.80;68.40
72905;DHT22;61048;52.162;4.516;2023-11-21T04:18:33;16.90;68.40
72905;DHT22;61048;52.162;4.516;2023-11-21T04:21:00;16.90;68.40
72905;DHT22;61048;52.162;4.516;2023-11-21T04:23:29;16.90;68.40
72905;DHT22;61048;52.162;4.516;2023-11-21T04:25:57;16.80;68.50
72905;DHT22;61048;52.162;4.516;2023-11-21T04:28:24;16.90;68.50
72905;DHT22;61048;52.162;4.516;2023-11-21T04:30:51;16.90;68.50
72905;DHT22;61048;52.162;4.516;2023-11-21T04:33:18;16.90;68.40
72905;DHT22;61048;52.162;4.516;2023-11-21T04:35:45;16.90;68.50
72905;DHT22;61048;52.162;4.516;2023-11-21T04:38:12;16.90;68.50
72905;DHT22;61048;52.162;4.516;2023-11-21T04:40:40;16.90;68.50
72905;DHT22;61048;52.162;4.516;2023-11-21T04:43:07;16.90;68.50
72905;DHT22;61048;52.162;4.516;2023-11-21T04:45:34;16.90;68.50
72905;DHT22;61048;52.162;4.516;2023-11-21T04:48:01;16.90;68.60
72905;DHT22;61048;52.162;4.516;2023-11-21T04:50:28;16.90;68.60
72905;DHT22;61048;52.162;4.516;2023-11-21T04:52:54;16.90;68.60
72905;DHT22;61048;52.162;4.516;2023-11-21T04:55:21;16.90;68.60
72905;DHT22;61048;52.162;4.516;2023-11-21T04:57:49;16.90;68.60
72905;DHT22;61048;52.162;4.516;2023-11-21T05:00:17;16.90;68.60
72905;DHT22;61048;52.162;4.516;2023-11-21T05:02:44;16.90;68.60
72905;DHT22;61048;52.162;4.516;2023-11-21T05:05:11;16.90;68.50
72905;DHT22;61048;52.162;4.516;2023-11-21T05:07:38;16.90;68.50
72905;DHT22;61048;52.162;4.516;2023-11-21T05:10:06;16.90;68.50
72905;DHT22;61048;52.162;4.516;2023-11-21T05:12:35;16.90;68.50
72905;DHT22;61048;52.162;4.516;2023-11-21T05:15:06;16.90;68.60
72905;DHT22;61048;52.162;4.516;2023-11-21T05:17:35;16.90;68.60
72905;DHT22;61048;52.162;4.516;2023-11-21T05:20:03;16.90;68.70
72905;DHT22;61048;52.162;4.516;2023-11-21T05:22:34;16.90;68.70
72905;DHT22;61048;52.162;4.516;2023-11-21T05:25:02;16.90;68.80
72905;DHT22;61048;52.162;4.516;2023-11-21T05:27:29;16.90;68.80
72905;DHT22;61048;52.162;4.516;2023-11-21T05:29:57;16.90;68.80
72905;DHT22;61048;52.162;4.516;2023-11-21T05:32:25;16.90;68.80
72905;DHT22;61048;52.162;4.516;2023-11-21T05:34:53;16.90;68.80
72905;DHT22;61048;52.162;4.516;2023-11-21T05:37:20;16.90;68.80
72905;DHT22;61048;52.162;4.516;2023-11-21T05:39:47;16.90;68.80
72905;DHT22;61048;52.162;4.516;2023-11-21T05:42:13;16.90;68.70
72905;DHT22;61048;52.162;4.516;2023-11-21T05:44:42;16.90;68.50
72905;DHT22;61048;52.162;4.516;2023-11-21T05:47:09;16.90;68.30
72905;DHT22;61048;52.162;4.516;2023-11-21T05:49:38;16.90;68.10
72905;DHT22;61048;52.162;4.516;2023-11-21T05:52:05;16.90;68.00
72905;DHT22;61048;52.162;4.516;2023-11-21T05:54:32;16.90;67.90
72905;DHT22;61048;52.162;4.516;2023-11-21T05:56:59;16.90;68.80
72905;DHT22;61048;52.162;4.516;2023-11-21T05:59:26;17.00;70.20
72905;DHT22;61048;52.162;4.516;2023-11-21T06:01:53;17.00;71.10
72905;DHT22;61048;52.162;4.516;2023-11-21T06:04:20;17.00;71.10
72905;DHT22;61048;52.162;4.516;2023-11-21T06:06:52;17.00;71.40
72905;DHT22;61048;52.162;4.516;2023-11-21T06:09:19;17.00;71.70
72905;DHT22;61048;52.162;4.516;2023-11-21T06:11:47;17.10;71.80
72905;DHT22;61048;52.162;4.516;2023-11-21T06:14:14;17.10;71.60
72905;DHT22;61048;52.162;4.516;2023-11-21T06:16:43;17.10;72.00
72905;DHT22;61048;52.162;4.516;2023-11-21T06:19:10;17.10;71.90
72905;DHT22;61048;52.162;4.516;2023-11-21T06:21:37;17.10;71.90
72905;DHT22;61048;52.162;4.516;2023-11-21T06:24:07;17.10;71.90
72905;DHT22;61048;52.162;4.516;2023-11-21T06:26:36;17.10;71.80
72905;DHT22;61048;52.162;4.516;2023-11-21T06:29:04;17.10;71.80
72905;DHT22;61048;52.162;4.516;2023-11-21T06:31:32;17.10;71.80
72905;DHT22;61048;52.162;4.516;2023-11-21T06:34:01;17.10;71.80
72905;DHT22;61048;52.162;4.516;2023-11-21T06:36:29;17.10;71.50
72905;DHT22;61048;52.162;4.516;2023-11-21T06:38:56;17.10;71.40
72905;DHT22;61048;52.162;4.516;2023-11-21T06:41:24;17.10;71.40
72905;DHT22;61048;52.162;4.516;2023-11-21T06:43:51;17.10;71.10
72905;DHT22;61048;52.162;4.516;2023-11-21T06:46:18;17.10;70.60
72905;DHT22;61048;52.162;4.516;2023-11-21T06:48:45;17.10;70.20
72905;DHT22;61048;52.162;4.516;2023-11-21T06:51:12;17.10;70.10
72905;DHT22;61048;52.162;4.516;2023-11-21T06:53:40;17.10;69.80
72905;DHT22;61048;52.162;4.516;2023-11-21T06:56:15;17.10;69.60
72905;DHT22;61048;52.162;4.516;2023-11-21T06:58:44;17.00;69.10
72905;DHT22;61048;52.162;4.516;2023-11-21T07:01:12;17.00;69.30
72905;DHT22;61048;52.162;4.516;2023-11-21T07:03:39;17.00;69.40
72905;DHT22;61048;52.162;4.516;2023-11-21T07:06:07;17.00;69.50
72905;DHT22;61048;52.162;4.516;2023-11-21T07:08:34;17.00;70.30
72905;DHT22;61048;52.162;4.516;2023-11-21T07:11:01;17.00;70.70
72905;DHT22;61048;52.162;4.516;2023-11-21T07:13:28;17.00;70.80
72905;DHT22;61048;52.162;4.516;2023-11-21T07:15:57;17.00;70.70
72905;DHT22;61048;52.162;4.516;2023-11-21T07:18:24;17.00;70.00
72905;DHT22;61048;52.162;4.516;2023-11-21T07:20:51;16.90;70.00
72905;DHT22;61048;52.162;4.516;2023-11-21T07:23:18;16.90;70.50
72905;DHT22;61048;52.162;4.516;2023-11-21T07:25:45;16.90;69.70
72905;DHT22;61048;52.162;4.516;2023-11-21T07:28:12;16.90;69.70
72905;DHT22;61048;52.162;4.516;2023-11-21T07:30:39;16.90;69.30
72905;DHT22;61048;52.162;4.516;2023-11-21T07:33:08;16.90;69.00
72905;DHT22;61048;52.162;4.516;2023-11-21T07:35:35;16.80;69.20
72905;DHT22;61048;52.162;4.516;2023-11-21T07:38:02;16.80;68.80
72905;DHT22;61048;52.162;4.516;2023-11-21T07:40:29;16.80;68.40
72905;DHT22;61048;52.162;4.516;2023-11-21T07:42:56;16.80;68.90
72905;DHT22;61048;52.162;4.516;2023-11-21T07:45:23;16.80;68.90
72905;DHT22;61048;52.162;4.516;2023-11-21T07:47:53;16.80;68.30
72905;DHT22;61048;52.162;4.516;2023-11-21T07:50:21;16.80;68.30
72905;DHT22;61048;52.162;4.516;2023-11-21T07:52:48;16.80;67.60
72905;DHT22;61048;52.162;4.516;2023-11-21T07:55:16;16.70;67.80
72905;DHT22;61048;52.162;4.516;2023-11-21T07:57:43;16.70;67.70
72905;DHT22;61048;52.162;4.516;2023-11-21T08:00:11;16.70;67.40
72905;DHT22;61048;52.162;4.516;2023-11-21T08:02:38;16.70;67.40
72905;DHT22;61048;52.162;4.516;2023-11-21T08:05:07;16.70;67.50
72905;DHT22;61048;52.162;4.516;2023-11-21T08:07:37;16.70;67.40
72905;DHT22;61048;52.162;4.516;2023-11-21T08:10:05;16.70;67.30
72905;DHT22;61048;52.162;4.516;2023-11-21T08:12:35;16.70;67.10
72905;DHT22;61048;52.162;4.516;2023-11-21T08:15:03;16.70;67.20
72905;DHT22;61048;52.162;4.516;2023-11-21T08:17:31;16.60;67.00
72905;DHT22;61048;52.162;4.516;2023-11-21T08:19:58;16.60;67.10
72905;DHT22;61048;52.162;4.516;2023-11-21T08:22:25;16.60;67.00
72905;DHT22;61048;52.162;4.516;2023-11-21T08:24:53;16.60;67.10
72905;DHT22;61048;52.162;4.516;2023-11-21T08:27:22;16.60;67.00
72905;DHT22;61048;52.162;4.516;2023-11-21T08:29:49;16.60;67.00
72905;DHT22;61048;52.162;4.516;2023-11-21T08:32:16;16.60;66.60
72905;DHT22;61048;52.162;4.516;2023-11-21T08:34:43;16.60;66.60
72905;DHT22;61048;52.162;4.516;2023-11-21T08:37:11;16.60;66.70
72905;DHT22;61048;52.162;4.516;2023-11-21T08:39:38;16.50;66.60
72905;DHT22;61048;52.162;4.516;2023-11-21T08:42:06;16.50;66.50
72905;DHT22;61048;52.162;4.516;2023-11-21T08:44:36;16.50;66.40
72905;DHT22;61048;52.162;4.516;2023-11-21T08:47:04;16.50;66.60
72905;DHT22;61048;52.162;4.516;2023-11-21T08:49:31;16.50;66.60
72905;DHT22;61048;52.162;4.516;2023-11-21T08:51:58;16.40;66.60
72905;DHT22;61048;52.162;4.516;2023-11-21T08:54:25;16.40;66.50
72905;DHT22;61048;52.162;4.516;2023-11-21T08:56:52;16.40;66.50
72905;DHT22;61048;52.162;4.516;2023-11-21T08:59:21;16.40;66.50
72905;DHT22;61048;52.162;4.516;2023-11-21T09:01:49;16.40;66.40
72905;DHT22;61048;52.162;4.516;2023-11-21T09:04:16;16.40;66.40
72905;DHT22;61048;52.162;4.516;2023-11-21T09:06:43;16.40;66.50
72905;DHT22;61048;52.162;4.516;2023-11-21T09:09:10;16.40;66.40
72905;DHT22;61048;52.162;4.516;2023-11-21T09:11:37;16.40;66.60
72905;DHT22;61048;52.162;4.516;2023-11-21T09:14:04;16.40;66.30
72905;DHT22;61048;52.162;4.516;2023-11-21T09:16:33;16.40;66.30
72905;DHT22;61048;52.162;4.516;2023-11-21T09:19:00;16.30;66.30
72905;DHT22;61048;52.162;4.516;2023-11-21T09:21:26;16.30;66.40
72905;DHT22;61048;52.162;4.516;2023-11-21T09:23:54;16.30;66.40
72905;DHT22;61048;52.162;4.516;2023-11-21T09:26:21;16.30;66.40
72905;DHT22;61048;52.162;4.516;2023-11-21T09:28:48;16.30;65.80
72905;DHT22;61048;52.162;4.516;2023-11-21T09:31:15;16.30;66.00
72905;DHT22;61048;52.162;4.516;2023-11-21T09:33:44;16.20;65.90
72905;DHT22;61048;52.162;4.516;2023-11-21T09:36:12;16.20;66.30
72905;DHT22;61048;52.162;4.516;2023-11-21T09:38:40;16.20;66.10
72905;DHT22;61048;52.162;4.516;2023-11-21T09:41:14;16.20;66.10
72905;DHT22;61048;52.162;4.516;2023-11-21T09:43:44;16.20;66.30
72905;DHT22;61048;52.162;4.516;2023-11-21T09:46:13;16.20;66.20
72905;DHT22;61048;52.162;4.516;2023-11-21T09:48:48;16.20;66.20
72905;DHT22;61048;52.162;4.516;2023-11-21T09:51:18;16.20;66.40
72905;DHT22;61048;52.162;4.516;2023-11-21T09:53:49;16.20;66.30
72905;DHT22;61048;52.162;4.516;2023-11-21T09:56:17;16.20;66.30
72905;DHT22;61048;52.162;4.516;2023-11-21T09:58:51;16.20;66.40
72905;DHT22;61048;52.162;4.516;2023-11-21T10:01:19;16.20;66.50
72905;DHT22;61048;52.162;4.516;2023-11-21T10:03:48;16.20;66.30
72905;DHT22;61048;52.162;4.516;2023-11-21T10:06:16;16.20;66.20
72905;DHT22;61048;52.162;4.516;2023-11-21T10:08:44;16.20;66.10
72905;DHT22;61048;52.162;4.516;2023-11-21T10:11:11;16.20;66.10
72905;DHT22;61048;52.162;4.516;2023-11-21T10:13:40;16.20;66.20
72905;DHT22;61048;52.162;4.516;2023-11-21T10:16:09;16.10;66.00
72905;DHT22;61048;52.162;4.516;2023-11-21T10:18:39;16.20;66.10
72905;DHT22;61048;52.162;4.516;2023-11-21T10:21:08;16.10;65.80
72905;DHT22;61048;52.162;4.516;2023-11-21T10:23:35;16.10;66.20
72905;DHT22;61048;52.162;4.516;2023-11-21T10:26:03;16.10;66.20
72905;DHT22;61048;52.162;4.516;2023-11-21T10:28:30;16.10;66.10
72905;DHT22;61048;52.162;4.516;2023-11-21T10:31:02;16.10;66.10
72905;DHT22;61048;52.162;4.516;2023-11-21T10:33:30;16.00;64.80
72905;DHT22;61048;52.162;4.516;2023-11-21T10:35:58;15.80;66.20
72905;DHT22;61048;52.162;4.516;2023-11-21T10:38:28;15.90;66.70
72905;DHT22;61048;52.162;4.516;2023-11-21T10:41:03;16.00;66.60
72905;DHT22;61048;52.162;4.516;2023-11-21T10:43:32;16.00;66.20
72905;DHT22;61048;52.162;4.516;2023-11-21T10:45:59;16.00;65.60
72905;DHT22;61048;52.162;4.516;2023-11-21T10:48:26;16.00;65.60
72905;DHT22;61048;52.162;4.516;2023-11-21T10:50:54;16.00;65.80
72905;DHT22;61048;52.162;4.516;2023-11-21T10:53:22;15.90;65.70
72905;DHT22;61048;52.162;4.516;2023-11-21T10:55:50;16.00;65.40
72905;DHT22;61048;52.162;4.516;2023-11-21T10:58:27;16.00;65.40
72905;DHT22;61048;52.162;4.516;2023-11-21T11:00:55;16.00;65.70
72905;DHT22;61048;52.162;4.516;2023-11-21T11:03:23;15.90;65.40
72905;DHT22;61048;52.162;4.516;2023-11-21T11:05:51;16.00;65.20
72905;DHT22;61048;52.162;4.516;2023-11-21T11:08:21;15.90;65.10
72905;DHT22;61048;52.162;4.516;2023-11-21T11:10:53;15.90;65.40
72905;DHT22;61048;52.162;4.516;2023-11-21T11:13:21;15.90;65.20
72905;DHT22;61048;52.162;4.516;2023-11-21T11:15:48;15.90;65.10
72905;DHT22;61048;52.162;4.516;2023-11-21T11:18:16;15.90;65.20
72905;DHT22;61048;52.162;4.516;2023-11-21T11:20:44;15.90;64.90
72905;DHT22;61048;52.162;4.516;2023-11-21T11:23:36;15.90;64.80
72905;DHT22;61048;52.162;4.516;2023-11-21T11:26:16;15.90;64.60
72905;DHT22;61048;52.162;4.516;2023-11-21T11:28:51;15.90;64.90
72905;DHT22;61048;52.162;4.516;2023-11-21T11:31:27;15.90;64.60
72905;DHT22;61048;52.162;4.516;2023-11-21T11:34:01;15.90;64.80
72905;DHT22;61048;52.162;4.516;2023-11-21T11:36:36;15.90;64.60
72905;DHT22;61048;52.162;4.516;2023-11-21T11:39:26;15.90;64.40
72905;DHT22;61048;52.162;4.516;2023-11-21T11:41:55;15.90;64.60
72905;DHT22;61048;52.162;4.516;2023-11-21T11:44:47;15.90;64.60
72905;DHT22;61048;52.162;4.516;2023-11-21T11:47:19;15.80;64.70
72905;DHT22;61048;52.162;4.516;2023-11-21T11:49:57;15.90;64.60
72905;DHT22;61048;52.162;4.516;2023-11-21T11:52:38;15.90;64.50
72905;DHT22;61048;52.162;4.516;2023-11-21T11:55:08;15.90;64.20
72905;DHT22;61048;52.162;4.516;2023-11-21T11:57:41;15.90;64.40
72905;DHT22;61048;52.162;4.516;2023-11-21T12:02:47;15.90;64.30
72905;DHT22;61048;52.162;4.516;2023-11-21T12:05:16;15.90;64.20
72905;DHT22;61048;52.162;4.516;2023-11-21T12:07:47;15.90;64.20
72905;DHT22;61048;52.162;4.516;2023-11-21T12:10:14;15.90;64.10
72905;DHT22;61048;52.162;4.516;2023-11-21T12:12:45;15.80;62.90
72905;DHT22;61048;52.162;4.516;2023-11-21T12:15:13;15.70;63.70
72905;DHT22;61048;52.162;4.516;2023-11-21T12:17:42;15.70;64.30
72905;DHT22;61048;52.162;4.516;2023-11-21T12:20:10;15.80;64.00
72905;DHT22;61048;52.162;4.516;2023-11-21T12:22:44;15.80;63.80
72905;DHT22;61048;52.162;4.516;2023-11-21T12:25:13;15.80;63.80
72905;DHT22;61048;52.162;4.516;2023-11-21T12:27:42;15.90;63.40
72905;DHT22;61048;52.162;4.516;2023-11-21T12:30:13;15.90;64.00
72905;DHT22;61048;52.162;4.516;2023-11-21T12:32:41;15.90;63.60
72905;DHT22;61048;52.162;4.516;2023-11-21T12:35:09;15.90;63.80
72905;DHT22;61048;52.162;4.516;2023-11-21T12:37:36;15.90;63.90
72905;DHT22;61048;52.162;4.516;2023-11-21T12:40:04;15.90;63.50
72905;DHT22;61048;52.162;4.516;2023-11-21T12:42:33;15.90;63.50
72905;DHT22;61048;52.162;4.516;2023-11-21T12:45:26;15.90;63.50
72905;DHT22;61048;52.162;4.516;2023-11-21T12:47:55;15.90;63.30
72905;DHT22;61048;52.162;4.516;2023-11-21T12:50:26;16.00;63.20
72905;DHT22;61048;52.162;4.516;2023-11-21T12:52:57;16.00;63.20
72905;DHT22;61048;52.162;4.516;2023-11-21T12:55:25;16.00;63.30
72905;DHT22;61048;52.162;4.516;2023-11-21T12:57:53;16.00;63.00
72905;DHT22;61048;52.162;4.516;2023-11-21T13:00:30;15.90;63.30
72905;DHT22;61048;52.162;4.516;2023-11-21T13:02:59;15.90;62.70
72905;DHT22;61048;52.162;4.516;2023-11-21T13:05:30;15.90;62.90
72905;DHT22;61048;52.162;4.516;2023-11-21T13:07:59;15.90;63.20
72905;DHT22;61048;52.162;4.516;2023-11-21T13:10:29;15.90;63.20
72905;DHT22;61048;52.162;4.516;2023-11-21T13:12:57;15.90;63.10
72905;DHT22;61048;52.162;4.516;2023-11-21T13:15:25;16.00;63.10
72905;DHT22;61048;52.162;4.516;2023-11-21T13:17:54;15.90;63.00
72905;DHT22;61048;52.162;4.516;2023-11-21T13:20:23;16.00;63.20
72905;DHT22;61048;52.162;4.516;2023-11-21T13:22:51;16.00;63.20
72905;DHT22;61048;52.162;4.516;2023-11-21T13:25:20;16.00;63.30
72905;DHT22;61048;52.162;4.516;2023-11-21T13:27:47;16.00;63.00
72905;DHT22;61048;52.162;4.516;2023-11-21T13:30:15;16.00;63.10
72905;DHT22;61048;52.162;4.516;2023-11-21T13:32:43;16.00;63.20
72905;DHT22;61048;52.162;4.516;2023-11-21T13:35:13;16.00;63.10
72905;DHT22;61048;52.162;4.516;2023-11-21T13:37:50;15.90;62.50
72905;DHT22;61048;52.162;4.516;2023-11-21T13:40:22;15.90;62.70
72905;DHT22;61048;52.162;4.516;2023-11-21T13:42:52;15.90;62.90
72905;DHT22;61048;52.162;4.516;2023-11-21T13:45:24;15.90;62.50
72905;DHT22;61048;52.162;4.516;2023-11-21T13:47:54;15.90;62.30
72905;DHT22;61048;52.162;4.516;2023-11-21T13:50:25;15.90;62.50
72905;DHT22;61048;52.162;4.516;2023-11-21T13:52:58;15.90;62.90
72905;DHT22;61048;52.162;4.516;2023-11-21T13:55:28;15.90;62.80
72905;DHT22;61048;52.162;4.516;2023-11-21T13:57:55;15.90;62.70
72905;DHT22;61048;52.162;4.516;2023-11-21T14:00:22;15.90;62.50
72905;DHT22;61048;52.162;4.516;2023-11-21T14:03:06;15.90;62.60
72905;DHT22;61048;52.162;4.516;2023-11-21T14:05:43;15.90;62.60
72905;DHT22;61048;52.162;4.516;2023-11-21T14:08:12;15.80;62.70
72905;DHT22;61048;52.162;4.516;2023-11-21T14:10:42;15.80;62.60
72905;DHT22;61048;52.162;4.516;2023-11-21T14:13:10;15.80;62.50
72905;DHT22;61048;52.162;4.516;2023-11-21T14:15:39;15.80;62.00
72905;DHT22;61048;52.162;4.516;2023-11-21T14:18:11;15.70;61.60
72905;DHT22;61048;52.162;4.516;2023-11-21T14:20:40;15.60;62.40
72905;DHT22;61048;52.162;4.516;2023-11-21T14:23:09;15.60;62.40
72905;DHT22;61048;52.162;4.516;2023-11-21T14:25:37;15.60;62.60
72905;DHT22;61048;52.162;4.516;2023-11-21T14:28:05;15.60;62.20
72905;DHT22;61048;52.162;4.516;2023-11-21T14:30:32;15.60;62.10
72905;DHT22;61048;52.162;4.516;2023-11-21T14:33:01;15.60;62.60
72905;DHT22;61048;52.162;4.516;2023-11-21T14:35:28;15.60;62.50
72905;DHT22;61048;52.162;4.516;2023-11-21T14:37:58;15.60;62.30
72905;DHT22;61048;52.162;4.516;2023-11-21T14:40:27;15.60;62.70
72905;DHT22;61048;52.162;4.516;2023-11-21T14:42:59;15.60;62.40
72905;DHT22;61048;52.162;4.516;2023-11-21T14:45:26;15.60;61.90
72905;DHT22;61048;52.162;4.516;2023-11-21T14:47:54;15.50;61.80
72905;DHT22;61048;52.162;4.516;2023-11-21T14:50:31;15.50;61.80
72905;DHT22;61048;52.162;4.516;2023-11-21T14:53:35;15.50;61.90
72905;DHT22;61048;52.162;4.516;2023-11-21T14:56:10;15.50;62.40
72905;DHT22;61048;52.162;4.516;2023-11-21T14:58:46;15.50;62.20
72905;DHT22;61048;52.162;4.516;2023-11-21T15:01:13;15.50;62.10
72905;DHT22;61048;52.162;4.516;2023-11-21T15:03:49;15.50;62.10
72905;DHT22;61048;52.162;4.516;2023-11-21T15:06:16;15.50;62.20
72905;DHT22;61048;52.162;4.516;2023-11-21T15:08:52;15.50;62.50
72905;DHT22;61048;52.162;4.516;2023-11-21T15:11:40;15.50;62.50
72905;DHT22;61048;52.162;4.516;2023-11-21T15:14:07;15.40;62.40
72905;DHT22;61048;52.162;4.516;2023-11-21T15:16:35;15.50;62.40
72905;DHT22;61048;52.162;4.516;2023-11-21T15:19:05;15.40;62.00
72905;DHT22;61048;52.162;4.516;2023-11-21T15:21:32;15.50;62.10
72905;DHT22;61048;52.162;4.516;2023-11-21T15:23:59;15.40;62.00
72905;DHT22;61048;52.162;4.516;2023-11-21T15:26:26;15.40;61.50
72905;DHT22;61048;52.162;4.516;2023-11-21T15:28:55;15.40;62.00
72905;DHT22;61048;52.162;4.516;2023-11-21T15:31:22;15.40;61.40
72905;DHT22;61048;52.162;4.516;2023-11-21T15:33:50;15.30;61.60
72905;DHT22;61048;52.162;4.516;2023-11-21T15:36:18;15.40;61.80
72905;DHT22;61048;52.162;4.516;2023-11-21T15:38:45;15.30;60.90
72905;DHT22;61048;52.162;4.516;2023-11-21T15:41:12;15.30;60.90